Disney Magic — C6PT7 — position and weather

sailwx.info

Track history (hours):
 
Tides and Currents Weather Stations Pressure Air Temp Water Temp Dewpoint Dewpoint Depression Visibility Wind Speed Wind Dir Waves Ship Positions

Disney Magic

Last reported at 2017-Apr-24 16:40 UTC. Time now 2017-Apr-26 02:11 UTC.
Position N 16°10' W 062°20'.

Type: Passenger vessel. MMSI: 308516000.

Date/timePositionNaut miles runAvg speedWind from/ knotsBaromVisibWave heightAir tempDewpointWater temp
2017-Apr-24 16:40N 16°10' W 062°20'316.2
2017-Apr-24 16:28N 16°13' W 062°22'716.4
2017-Apr-24 16:00N 16°20' W 062°25'816.3
2017-Apr-24 15:30N 16°27' W 062°30'815.6
2017-Apr-24 15:00N 16°33' W 062°34'816.2
2017-Apr-24 14:30N 16°40' W 062°38'5916.6
2017-Apr-24 10:58N 17°32' W 063°07'816.5
2017-Apr-24 10:30N 17°40' W 063°09'814.9
2017-Apr-24 09:59N 17°45' W 063°15'1116.6
2017-Apr-24 09:19N 17°49' W 063°26'516.3
2017-Apr-24 09:00N 17°51' W 063°31'916.3
2017-Apr-24 08:27N 17°54' W 063°39'5815.9
2017-Apr-24 04:47N 18°07' W 064°39'415.8
2017-Apr-24 04:30N 18°08' W 064°44'815.8
2017-Apr-24 04:00N 18°09' W 064°52'815.3
2017-Apr-24 03:30N 18°12' W 064°59'6215.3
2017-Apr-23 23:26N 18°36' W 065°60'715.6
2017-Apr-23 23:00N 18°32' W 066°06'5 9.7
2017-Apr-23 22:30N 18°28' W 066°07'1 2.7
2017-Apr-23 22:01N 18°28' W 066°06'0 0.1
2017-Apr-23 21:06N 18°28' W 066°06'0 0.0
2017-Apr-23 21:00N 18°28' W 066°06'0 0.0
2017-Apr-23 20:00N 18°28' W 066°06'0 0.0
2017-Apr-23 19:24N 18°28' W 066°06'0 0.0
2017-Apr-23 18:36N 18°28' W 066°06'0 0.1
2017-Apr-23 18:30N 18°28' W 066°06'0 0.0
2017-Apr-23 18:00N 18°28' W 066°06'0 0.0
2017-Apr-23 17:24N 18°28' W 066°06'0 0.0
2017-Apr-23 16:54N 18°28' W 066°06'0 0.0
2017-Apr-23 16:06N 18°28' W 066°06'0 0.0
2017-Apr-23 15:54N 18°28' W 066°06'0 0.0
2017-Apr-23 15:30N 18°28' W 066°06'0 0.0
2017-Apr-23 15:00N 18°28' W 066°06'0 0.0
2017-Apr-23 13:48N 18°28' W 066°06'0 0.0
2017-Apr-23 13:30N 18°28' W 066°06'0 0.0
2017-Apr-23 13:00N 18°28' W 066°06'0 0.0
2017-Apr-23 12:30N 18°28' W 066°06'0 0.0
2017-Apr-23 12:00N 18°28' W 066°06'0 0.0
2017-Apr-23 10:48N 18°28' W 066°06'0 0.0
2017-Apr-23 09:36N 18°28' W 066°06'0 0.0
2017-Apr-23 09:29N 18°28' W 066°06'1 2.4
2017-Apr-23 09:01N 18°27' W 066°07'3 6.9
2017-Apr-23 08:30N 18°31' W 066°07'612.9
2017-Apr-23 08:00N 18°31' W 066°00'5918.0
2017-Apr-23 04:42N 18°13' W 065°00'421.3
2017-Apr-23 04:30N 18°10' W 064°57'1121.1
2017-Apr-23 03:59N 18°08' W 064°46'5721.0
2017-Apr-23 01:17N 17°57' W 063°47'621.1
2017-Apr-23 01:00N 17°55' W 063°41'1121.1
2017-Apr-23 00:30N 17°51' W 063°31'1221.0
2017-Apr-22 23:57N 17°47' W 063°19'1020.6
2017-Apr-22 23:28N 17°43' W 063°10'1020.9
2017-Apr-22 22:58N 17°33' W 063°07'29 2.3
2017-Apr-22 10:26N 17°15' W 062°43'2314.7
2017-Apr-22 08:52N 16°52' W 062°45'14 2.7
2017-Apr-22 03:38N 16°46' W 062°33'1 9.3
2017-Apr-22 03:30N 16°46' W 062°31'5 9.4
2017-Apr-22 03:01N 16°46' W 062°26'5 9.1
2017-Apr-22 02:31N 16°46' W 062°22'4 8.8
2017-Apr-22 02:01N 16°50' W 062°19'5 9.0
2017-Apr-22 01:31N 16°53' W 062°16'4 8.9
2017-Apr-22 01:01N 16°57' W 062°14'4 8.7
2017-Apr-22 00:31N 17°00' W 062°11'4 7.8
2017-Apr-22 00:01N 17°04' W 062°09'4 8.9
2017-Apr-21 23:31N 17°07' W 062°06'4 8.8
2017-Apr-21 23:01N 17°11' W 062°04'5 8.5
2017-Apr-21 22:26N 17°10' W 061°58'4 9.1
2017-Apr-21 22:01N 17°09' W 061°55'3 7.0
2017-Apr-21 21:31N 17°07' W 061°51'1 1.0
2017-Apr-21 20:59N 17°07' W 061°51'0 0.0
2017-Apr-21 20:29N 17°07' W 061°51'0 0.0
2017-Apr-21 19:59N 17°07' W 061°51'0 0.0
2017-Apr-21 19:29N 17°07' W 061°51'0 0.0
2017-Apr-21 18:59N 17°07' W 061°51'0 0.0
2017-Apr-21 18:29N 17°07' W 061°51'0 0.0
2017-Apr-21 17:59N 17°07' W 061°51'0 0.0
2017-Apr-21 17:29N 17°07' W 061°51'0 0.0
2017-Apr-21 16:59N 17°07' W 061°51'0 0.0
2017-Apr-21 16:29N 17°07' W 061°51'0 0.0
2017-Apr-21 15:59N 17°07' W 061°51'0 0.0
2017-Apr-21 15:29N 17°07' W 061°51'0 0.0
2017-Apr-21 14:59N 17°07' W 061°51'0 0.0
2017-Apr-21 14:29N 17°07' W 061°51'0 0.0
2017-Apr-21 13:29N 17°07' W 061°51'0 0.0
2017-Apr-21 12:59N 17°07' W 061°51'0 0.0
2017-Apr-21 12:29N 17°07' W 061°51'0 0.0
2017-Apr-21 11:59N 17°07' W 061°51'0 0.0
2017-Apr-21 11:29N 17°07' W 061°51'1 1.3
2017-Apr-21 11:00N 17°07' W 061°51'3 6.7
2017-Apr-21 10:31N 17°09' W 061°55'3 6.3
2017-Apr-21 10:01N 17°10' W 061°58'4 8.2
2017-Apr-21 09:30N 17°11' W 062°02'4 7.7
2017-Apr-21 09:00N 17°09' W 062°05'4 8.2
2017-Apr-21 08:31N 17°05' W 062°07'612.2
2017-Apr-21 08:01N 17°00' W 062°11'816.9
2017-Apr-21 07:31N 16°54' W 062°16'816.8
2017-Apr-21 07:00N 16°46' W 062°21'816.9
2017-Apr-21 06:30N 16°38' W 062°21'917.2
2017-Apr-21 06:00N 16°29' W 062°21'917.4
2017-Apr-21 05:31N 16°21' W 062°18'  
2017-Apr-17 16:59N 16°09' W 062°19'816.4
2017-Apr-17 16:31N 16°16' W 062°23'816.3
2017-Apr-17 16:01N 16°23' W 062°28'816.1
2017-Apr-17 15:30N 16°30' W 062°32'816.4
2017-Apr-17 15:01N 16°37' W 062°36'5916.6
2017-Apr-17 11:28N 17°29' W 063°06'817.1
2017-Apr-17 11:00N 17°36' W 063°08'815.9
2017-Apr-17 10:28N 17°44' W 063°12'815.8
2017-Apr-17 10:00N 17°47' W 063°19'815.8
2017-Apr-17 09:30N 17°49' W 063°27'816.0
2017-Apr-17 08:59N 17°53' W 063°35'816.1
2017-Apr-17 08:30N 17°55' W 063°42'5815.7
2017-Apr-17 04:50N 18°07' W 064°42'615.4
2017-Apr-17 04:27N 18°08' W 064°48'715.8
2017-Apr-17 04:00N 18°09' W 064°55'6115.0
2017-Apr-16 23:57N 18°34' W 065°54'815.1
2017-Apr-16 23:26N 18°34' W 066°02'613.8
2017-Apr-16 23:00N 18°32' W 066°07'4 8.4
2017-Apr-16 22:30N 18°27' W 066°07'1 0.8
2017-Apr-16 21:05N 18°28' W 066°06'2 0.2
2017-Apr-16 08:48N 18°28' W 066°08'3 8.9
2017-Apr-16 08:30N 18°31' W 066°07'612.4
2017-Apr-16 08:00N 18°31' W 066°01'6016.8
2017-Apr-16 04:25N 18°13' W 065°00'820.3
2017-Apr-16 04:00N 18°09' W 064°53'8221.0
2017-Apr-16 00:05N 17°50' W 063°29'821.2
2017-Apr-15 23:42N 17°47' W 063°20'421.0
2017-Apr-15 23:30N 17°46' W 063°16'1019.8
2017-Apr-15 23:00N 17°39' W 063°08'2919.5
2017-Apr-15 21:30N 17°16' W 062°50'34 1.9
2017-Apr-15 03:35N 16°46' W 062°35'1 8.7
2017-Apr-15 03:25N 16°45' W 062°33'4 8.8
2017-Apr-15 03:00N 16°45' W 062°29'4 8.7
2017-Apr-15 02:30N 16°45' W 062°25'4 7.9
2017-Apr-15 02:00N 16°47' W 062°21'4 8.4
2017-Apr-15 01:30N 16°50' W 062°18'4 8.3
2017-Apr-15 01:00N 16°54' W 062°16'4 8.4
2017-Apr-15 00:30N 16°57' W 062°13'4 8.7
2017-Apr-15 00:00N 17°01' W 062°11'4 8.5
2017-Apr-14 23:30N 17°04' W 062°08'4 8.5
2017-Apr-14 23:00N 17°08' W 062°06'4 8.1
2017-Apr-14 22:30N 17°11' W 062°03'4 8.1
2017-Apr-14 22:00N 17°11' W 061°59'612.3
2017-Apr-14 21:30N 17°08' W 061°53'2 3.7
2017-Apr-14 20:52N 17°07' W 061°51'0 0.0
2017-Apr-14 20:28N 17°07' W 061°51'0 0.0
2017-Apr-14 19:58N 17°07' W 061°51'0 0.0
2017-Apr-14 19:28N 17°07' W 061°51'0 0.0
2017-Apr-14 18:58N 17°07' W 061°51'0 0.0
2017-Apr-14 18:28N 17°07' W 061°51'0 0.0
2017-Apr-14 17:58N 17°07' W 061°51'0 0.0
2017-Apr-14 17:28N 17°07' W 061°51'0 0.0
2017-Apr-14 16:58N 17°07' W 061°51'  
Track history (hours):
 
Tides and Currents Weather Stations Pressure Air Temp Water Temp Dewpoint Dewpoint Depression Visibility Wind Speed Wind Dir Waves Ship Positions

Disney Magic

Last reported at 2017-Apr-24 16:40 UTC. Time now 2017-Apr-26 02:11 UTC.
Position N 16°10' W 062°20'.

Type: Passenger vessel. MMSI: 308516000.

Date/timePositionNaut miles runAvg speedWind from/ knotsBaromVisibWave heightAir tempDewpointWater temp
2017-Apr-24 16:40N 16°10' W 062°20'316.2
2017-Apr-24 16:28N 16°13' W 062°22'716.4
2017-Apr-24 16:00N 16°20' W 062°25'816.3
2017-Apr-24 15:30N 16°27' W 062°30'815.6
2017-Apr-24 15:00N 16°33' W 062°34'816.2
2017-Apr-24 14:30N 16°40' W 062°38'5916.6
2017-Apr-24 10:58N 17°32' W 063°07'816.5
2017-Apr-24 10:30N 17°40' W 063°09'814.9
2017-Apr-24 09:59N 17°45' W 063°15'1116.6
2017-Apr-24 09:19N 17°49' W 063°26'516.3
2017-Apr-24 09:00N 17°51' W 063°31'916.3
2017-Apr-24 08:27N 17°54' W 063°39'5815.9
2017-Apr-24 04:47N 18°07' W 064°39'415.8
2017-Apr-24 04:30N 18°08' W 064°44'815.8
2017-Apr-24 04:00N 18°09' W 064°52'815.3
2017-Apr-24 03:30N 18°12' W 064°59'6215.3
2017-Apr-23 23:26N 18°36' W 065°60'715.6
2017-Apr-23 23:00N 18°32' W 066°06'5 9.7
2017-Apr-23 22:30N 18°28' W 066°07'1 2.7
2017-Apr-23 22:01N 18°28' W 066°06'0 0.1
2017-Apr-23 21:06N 18°28' W 066°06'0 0.0
2017-Apr-23 21:00N 18°28' W 066°06'0 0.0
2017-Apr-23 20:00N 18°28' W 066°06'0 0.0
2017-Apr-23 19:24N 18°28' W 066°06'0 0.0
2017-Apr-23 18:36N 18°28' W 066°06'0 0.1
2017-Apr-23 18:30N 18°28' W 066°06'0 0.0
2017-Apr-23 18:00N 18°28' W 066°06'0 0.0
2017-Apr-23 17:24N 18°28' W 066°06'0 0.0
2017-Apr-23 16:54N 18°28' W 066°06'0 0.0
2017-Apr-23 16:06N 18°28' W 066°06'0 0.0
2017-Apr-23 15:54N 18°28' W 066°06'0 0.0
2017-Apr-23 15:30N 18°28' W 066°06'0 0.0
2017-Apr-23 15:00N 18°28' W 066°06'0 0.0
2017-Apr-23 13:48N 18°28' W 066°06'0 0.0
2017-Apr-23 13:30N 18°28' W 066°06'0 0.0
2017-Apr-23 13:00N 18°28' W 066°06'0 0.0
2017-Apr-23 12:30N 18°28' W 066°06'0 0.0
2017-Apr-23 12:00N 18°28' W 066°06'0 0.0
2017-Apr-23 10:48N 18°28' W 066°06'0 0.0
2017-Apr-23 09:36N 18°28' W 066°06'0 0.0
2017-Apr-23 09:29N 18°28' W 066°06'1 2.4
2017-Apr-23 09:01N 18°27' W 066°07'3 6.9
2017-Apr-23 08:30N 18°31' W 066°07'612.9
2017-Apr-23 08:00N 18°31' W 066°00'5918.0
2017-Apr-23 04:42N 18°13' W 065°00'421.3
2017-Apr-23 04:30N 18°10' W 064°57'1121.1
2017-Apr-23 03:59N 18°08' W 064°46'5721.0
2017-Apr-23 01:17N 17°57' W 063°47'621.1
2017-Apr-23 01:00N 17°55' W 063°41'1121.1
2017-Apr-23 00:30N 17°51' W 063°31'1221.0
2017-Apr-22 23:57N 17°47' W 063°19'1020.6
2017-Apr-22 23:28N 17°43' W 063°10'1020.9
2017-Apr-22 22:58N 17°33' W 063°07'29 2.3
2017-Apr-22 10:26N 17°15' W 062°43'2314.7
2017-Apr-22 08:52N 16°52' W 062°45'14 2.7
2017-Apr-22 03:38N 16°46' W 062°33'1 9.3
2017-Apr-22 03:30N 16°46' W 062°31'5 9.4
2017-Apr-22 03:01N 16°46' W 062°26'5 9.1
2017-Apr-22 02:31N 16°46' W 062°22'4 8.8
2017-Apr-22 02:01N 16°50' W 062°19'5 9.0
2017-Apr-22 01:31N 16°53' W 062°16'4 8.9
2017-Apr-22 01:01N 16°57' W 062°14'4 8.7
2017-Apr-22 00:31N 17°00' W 062°11'4 7.8
2017-Apr-22 00:01N 17°04' W 062°09'4 8.9
2017-Apr-21 23:31N 17°07' W 062°06'4 8.8
2017-Apr-21 23:01N 17°11' W 062°04'5 8.5
2017-Apr-21 22:26N 17°10' W 061°58'4 9.1
2017-Apr-21 22:01N 17°09' W 061°55'3 7.0
2017-Apr-21 21:31N 17°07' W 061°51'1 1.0
2017-Apr-21 20:59N 17°07' W 061°51'0 0.0
2017-Apr-21 20:29N 17°07' W 061°51'0 0.0
2017-Apr-21 19:59N 17°07' W 061°51'0 0.0
2017-Apr-21 19:29N 17°07' W 061°51'0 0.0
2017-Apr-21 18:59N 17°07' W 061°51'0 0.0
2017-Apr-21 18:29N 17°07' W 061°51'0 0.0
2017-Apr-21 17:59N 17°07' W 061°51'0 0.0
2017-Apr-21 17:29N 17°07' W 061°51'0 0.0
2017-Apr-21 16:59N 17°07' W 061°51'0 0.0
2017-Apr-21 16:29N 17°07' W 061°51'0 0.0
2017-Apr-21 15:59N 17°07' W 061°51'0 0.0
2017-Apr-21 15:29N 17°07' W 061°51'0 0.0
2017-Apr-21 14:59N 17°07' W 061°51'0 0.0
2017-Apr-21 14:29N 17°07' W 061°51'0 0.0
2017-Apr-21 13:29N 17°07' W 061°51'0 0.0
2017-Apr-21 12:59N 17°07' W 061°51'0 0.0
2017-Apr-21 12:29N 17°07' W 061°51'0 0.0
2017-Apr-21 11:59N 17°07' W 061°51'0 0.0
2017-Apr-21 11:29N 17°07' W 061°51'1 1.3
2017-Apr-21 11:00N 17°07' W 061°51'3 6.7
2017-Apr-21 10:31N 17°09' W 061°55'3 6.3
2017-Apr-21 10:01N 17°10' W 061°58'4 8.2
2017-Apr-21 09:30N 17°11' W 062°02'4 7.7
2017-Apr-21 09:00N 17°09' W 062°05'4 8.2
2017-Apr-21 08:31N 17°05' W 062°07'612.2
2017-Apr-21 08:01N 17°00' W 062°11'816.9
2017-Apr-21 07:31N 16°54' W 062°16'816.8
2017-Apr-21 07:00N 16°46' W 062°21'816.9
2017-Apr-21 06:30N 16°38' W 062°21'917.2
2017-Apr-21 06:00N 16°29' W 062°21'917.4
2017-Apr-21 05:31N 16°21' W 062°18'  
2017-Apr-17 16:59N 16°09' W 062°19'816.4
2017-Apr-17 16:31N 16°16' W 062°23'816.3
2017-Apr-17 16:01N 16°23' W 062°28'816.1
2017-Apr-17 15:30N 16°30' W 062°32'816.4
2017-Apr-17 15:01N 16°37' W 062°36'5916.6
2017-Apr-17 11:28N 17°29' W 063°06'817.1
2017-Apr-17 11:00N 17°36' W 063°08'815.9
2017-Apr-17 10:28N 17°44' W 063°12'815.8
2017-Apr-17 10:00N 17°47' W 063°19'815.8
2017-Apr-17 09:30N 17°49' W 063°27'816.0
2017-Apr-17 08:59N 17°53' W 063°35'816.1
2017-Apr-17 08:30N 17°55' W 063°42'5815.7
2017-Apr-17 04:50N 18°07' W 064°42'615.4
2017-Apr-17 04:27N 18°08' W 064°48'715.8
2017-Apr-17 04:00N 18°09' W 064°55'6115.0
2017-Apr-16 23:57N 18°34' W 065°54'815.1
2017-Apr-16 23:26N 18°34' W 066°02'613.8
2017-Apr-16 23:00N 18°32' W 066°07'4 8.4
2017-Apr-16 22:30N 18°27' W 066°07'1 0.8
2017-Apr-16 21:05N 18°28' W 066°06'2 0.2
2017-Apr-16 08:48N 18°28' W 066°08'3 8.9
2017-Apr-16 08:30N 18°31' W 066°07'612.4
2017-Apr-16 08:00N 18°31' W 066°01'6016.8
2017-Apr-16 04:25N 18°13' W 065°00'820.3
2017-Apr-16 04:00N 18°09' W 064°53'8221.0
2017-Apr-16 00:05N 17°50' W 063°29'821.2
2017-Apr-15 23:42N 17°47' W 063°20'421.0
2017-Apr-15 23:30N 17°46' W 063°16'1019.8
2017-Apr-15 23:00N 17°39' W 063°08'2919.5
2017-Apr-15 21:30N 17°16' W 062°50'34 1.9
2017-Apr-15 03:35N 16°46' W 062°35'1 8.7
2017-Apr-15 03:25N 16°45' W 062°33'4 8.8
2017-Apr-15 03:00N 16°45' W 062°29'4 8.7
2017-Apr-15 02:30N 16°45' W 062°25'4 7.9
2017-Apr-15 02:00N 16°47' W 062°21'4 8.4
2017-Apr-15 01:30N 16°50' W 062°18'4 8.3
2017-Apr-15 01:00N 16°54' W 062°16'4 8.4
2017-Apr-15 00:30N 16°57' W 062°13'4 8.7
2017-Apr-15 00:00N 17°01' W 062°11'4 8.5
2017-Apr-14 23:30N 17°04' W 062°08'4 8.5
2017-Apr-14 23:00N 17°08' W 062°06'4 8.1
2017-Apr-14 22:30N 17°11' W 062°03'4 8.1
2017-Apr-14 22:00N 17°11' W 061°59'612.3
2017-Apr-14 21:30N 17°08' W 061°53'2 3.7
2017-Apr-14 20:52N 17°07' W 061°51'0 0.0
2017-Apr-14 20:28N 17°07' W 061°51'0 0.0
2017-Apr-14 19:58N 17°07' W 061°51'0 0.0
2017-Apr-14 19:28N 17°07' W 061°51'0 0.0
2017-Apr-14 18:58N 17°07' W 061°51'0 0.0
2017-Apr-14 18:28N 17°07' W 061°51'0 0.0
2017-Apr-14 17:58N 17°07' W 061°51'0 0.0
2017-Apr-14 17:28N 17°07' W 061°51'0 0.0
2017-Apr-14 16:58N 17°07' W 061°51'  

Dump ship's entire track history